Terminal Aerodrome Forecast
Issued by NWS Missoula, MT

Home | Current Version | Previous Version | Text Only | Print | Product List | Glossary On
Versions: 1 2 3 4 5 6 7 8 9 10 11 12 13 14 15 16 17 18 19 20 21 22 23 24 25
000
FTUS45 KMSO 310704 AAA
TAFGPI
TAF AMD
KGPI 310704Z 3107/0106 35003KT 1/2SM FZFG VV002
     FM311300 02005KT 1SM BR VCSH BKN002 OVC004
     FM311800 02010KT 5SM BR SCT004=

USA.gov is the U.S. government's official web portal to all federal, state and local government web resources and services.